Time;durP1;ratioP1;P1;durP2;ratioP2;P2;SDS_P1;SDS_P2;PMS_P1;PMS_P2;Temp;Humidity;BMP_temperature;BMP_pressure;BME280_temperature;BME280_humidity;BME280_pressure;Samples;Min_cycle;Max_cycle;Signal;HPM_P1;HPM_P2
2022/06/21 00:01:18;;;;;;;;;;;22.00;42.60;;;;;;5049546;28;19925;-60
2022/06/21 00:03:45;;;;;;;;;;;22.00;42.60;;;;;;5034287;28;19933;-60
2022/06/21 00:06:12;;;;;;;;;;;22.00;42.70;;;;;;5033430;28;19925;-60
2022/06/21 00:08:39;;;;;;;;;;;22.00;42.60;;;;;;5015676;28;19925;-60
2022/06/21 00:11:12;;;;;;;;;;;22.00;42.70;;;;;;5009939;28;20524;-59
2022/06/21 00:13:38;;;;;;;;;;;22.00;42.70;;;;;;5027418;28;19932;-60
2022/06/21 00:16:06;;;;;;;;;;;22.00;42.70;;;;;;5033575;28;19929;-59
2022/06/21 00:18:33;;;;;;;;;;;22.00;42.70;;;;;;5012339;28;20013;-61
2022/06/21 00:21:00;;;;;;;;;;;22.00;42.80;;;;;;5012530;28;19993;-63
2022/06/21 00:23:33;;;;;;;;;;;22.00;42.80;;;;;;5025185;28;20291;-60
2022/06/21 00:26:00;;;;;;;;;;;22.00;42.80;;;;;;5006816;28;19948;-60
2022/06/21 00:28:28;;;;;;;;;;;22.00;42.90;;;;;;5028209;28;19998;-59
2022/06/21 00:30:55;;;;;;;;;;;22.00;43.00;;;;;;5032271;28;19988;-61
2022/06/21 00:33:23;;;;;;;;;;;22.00;43.10;;;;;;5032675;28;19947;-60
2022/06/21 00:35:50;;;;;;;;;;;22.00;43.10;;;;;;5031992;28;19955;-60
2022/06/21 00:38:18;;;;;;;;;;;22.00;43.00;;;;;;5033267;28;20268;-59
2022/06/21 00:40:44;;;;;;;;;;;22.00;43.00;;;;;;5016142;28;19926;-59
2022/06/21 00:43:12;;;;;;;;;;;22.00;43.10;;;;;;5032918;28;19933;-60
2022/06/21 00:45:41;;;;;;;;;;;22.00;43.10;;;;;;5041181;28;20337;-61
2022/06/21 00:48:10;;;;;;;;;;;22.00;43.20;;;;;;5050555;28;19924;-60
2022/06/21 00:50:38;;;;;;;;;;;22.00;43.20;;;;;;5021678;28;19940;-59
2022/06/21 00:53:06;;;;;;;;;;;22.00;43.20;;;;;;5032230;28;19925;-59
2022/06/21 00:55:35;;;;;;;;;;;22.00;43.30;;;;;;5032740;28;19979;-59
2022/06/21 00:58:02;;;;;;;;;;;22.00;43.20;;;;;;5039931;28;20458;-61
2022/06/21 01:00:30;;;;;;;;;;;22.00;43.20;;;;;;5009319;28;19932;-59
2022/06/21 01:02:58;;;;;;;;;;;21.90;43.20;;;;;;5023914;28;19932;-59
2022/06/21 01:05:26;;;;;;;;;;;22.00;43.20;;;;;;5014664;28;19926;-60
2022/06/21 01:07:53;;;;;;;;;;;22.00;43.20;;;;;;5033674;28;19994;-60
2022/06/21 01:10:19;;;;;;;;;;;21.90;43.10;;;;;;5014940;28;20341;-62
2022/06/21 01:12:47;;;;;;;;;;;21.90;43.10;;;;;;5032610;28;19932;-59
2022/06/21 01:15:16;;;;;;;;;;;21.90;43.10;;;;;;5021211;28;20382;-60
2022/06/21 01:17:42;;;;;;;;;;;21.90;43.00;;;;;;5036703;28;19936;-60
2022/06/21 01:20:12;;;;;;;;;;;21.90;43.10;;;;;;5015445;28;19944;-59
2022/06/21 01:22:41;;;;;;;;;;;21.90;43.10;;;;;;5047849;28;20310;-60
2022/06/21 01:25:16;;;;;;;;;;;21.90;43.10;;;;;;5001104;28;20420;-60
2022/06/21 01:27:44;;;;;;;;;;;21.90;43.10;;;;;;5028423;28;19983;-60
2022/06/21 01:30:11;;;;;;;;;;;22.00;43.20;;;;;;5026417;28;19979;-60
2022/06/21 01:32:38;;;;;;;;;;;22.00;43.20;;;;;;5014302;28;19932;-61
2022/06/21 01:35:10;;;;;;;;;;;21.90;43.10;;;;;;5021903;28;19929;-60
2022/06/21 01:37:37;;;;;;;;;;;21.90;43.10;;;;;;5011524;28;19952;-60
2022/06/21 01:40:08;;;;;;;;;;;21.90;43.10;;;;;;5031203;28;19925;-60
2022/06/21 01:42:35;;;;;;;;;;;21.90;43.20;;;;;;5028068;28;19924;-60
2022/06/21 01:45:04;;;;;;;;;;;21.90;43.20;;;;;;5041835;28;19925;-60
2022/06/21 01:47:32;;;;;;;;;;;21.90;43.20;;;;;;5019209;28;19933;-60
2022/06/21 01:49:59;;;;;;;;;;;21.90;43.10;;;;;;5013589;28;19933;-59
2022/06/21 01:52:27;;;;;;;;;;;21.90;43.10;;;;;;5018135;28;19929;-60
2022/06/21 01:54:54;;;;;;;;;;;21.90;43.20;;;;;;5010799;28;19925;-60
2022/06/21 01:57:20;;;;;;;;;;;21.90;43.20;;;;;;5027094;28;19934;-59
2022/06/21 01:59:48;;;;;;;;;;;21.90;43.20;;;;;;5004748;28;20024;-60
2022/06/21 02:02:17;;;;;;;;;;;21.90;43.20;;;;;;5024320;28;19925;-60
2022/06/21 02:04:45;;;;;;;;;;;21.90;43.20;;;;;;5024290;28;19933;-59
2022/06/21 02:07:13;;;;;;;;;;;21.90;43.20;;;;;;5022198;28;20531;-60
2022/06/21 02:09:40;;;;;;;;;;;21.90;43.20;;;;;;5007845;28;19929;-59
2022/06/21 02:12:10;;;;;;;;;;;21.90;43.20;;;;;;5012047;28;19925;-60
2022/06/21 02:14:38;;;;;;;;;;;21.90;43.20;;;;;;5004576;28;19937;-60
2022/06/21 02:17:07;;;;;;;;;;;21.90;43.20;;;;;;5008587;28;20437;-61
2022/06/21 02:19:39;;;;;;;;;;;21.90;43.20;;;;;;5022430;28;19925;-60
2022/06/21 02:22:06;;;;;;;;;;;21.90;43.20;;;;;;5007877;28;19928;-59
2022/06/21 02:24:33;;;;;;;;;;;21.90;43.20;;;;;;5011556;28;20309;-59
2022/06/21 02:27:00;;;;;;;;;;;21.90;43.20;;;;;;5016503;28;20004;-59
2022/06/21 02:29:26;;;;;;;;;;;21.90;43.20;;;;;;5008955;28;19926;-61
2022/06/21 02:31:53;;;;;;;;;;;21.90;43.20;;;;;;5003911;28;19929;-61
2022/06/21 02:34:21;;;;;;;;;;;21.90;43.10;;;;;;5024079;28;19925;-60
2022/06/21 02:36:50;;;;;;;;;;;21.90;43.10;;;;;;5000748;28;19979;-58
2022/06/21 02:39:18;;;;;;;;;;;21.90;43.20;;;;;;5025207;28;19991;-61
2022/06/21 02:41:46;;;;;;;;;;;21.90;43.20;;;;;;5013011;28;19941;-60
2022/06/21 02:44:14;;;;;;;;;;;21.90;43.10;;;;;;5011604;28;19926;-59
2022/06/21 02:46:42;;;;;;;;;;;21.90;43.10;;;;;;5012137;28;19960;-64
2022/06/21 02:49:11;;;;;;;;;;;21.90;43.20;;;;;;5008775;28;19973;-60
2022/06/21 02:51:38;;;;;;;;;;;21.90;43.20;;;;;;5013374;28;19925;-59
2022/06/21 02:54:07;;;;;;;;;;;21.90;43.20;;;;;;5017455;28;19925;-60
2022/06/21 02:56:34;;;;;;;;;;;21.90;43.20;;;;;;5030570;28;20369;-60
2022/06/21 02:59:01;;;;;;;;;;;21.80;43.10;;;;;;5009597;28;20303;-60
2022/06/21 03:04:03;;;;;;;;;;;21.80;43.10;;;;;;5225438;23;20403;-56
2022/06/21 03:06:30;;;;;;;;;;;21.80;43.10;;;;;;5070365;28;19935;-56
2022/06/21 03:08:57;;;;;;;;;;;21.90;43.20;;;;;;5075243;28;19929;-55
2022/06/21 03:11:27;;;;;;;;;;;21.80;43.10;;;;;;5059665;28;19964;-56
2022/06/21 03:13:54;;;;;;;;;;;21.80;43.10;;;;;;5060110;28;20031;-55
2022/06/21 03:16:22;;;;;;;;;;;21.80;43.10;;;;;;5079056;28;20027;-55
2022/06/21 03:18:51;;;;;;;;;;;21.80;43.10;;;;;;5069319;28;19929;-57
2022/06/21 03:21:19;;;;;;;;;;;21.80;43.10;;;;;;5068038;28;19932;-52
2022/06/21 03:23:46;;;;;;;;;;;21.80;43.10;;;;;;5083551;28;19932;-57
2022/06/21 03:26:13;;;;;;;;;;;21.80;43.10;;;;;;5069833;28;19924;-58
2022/06/21 03:28:43;;;;;;;;;;;21.80;43.10;;;;;;5067935;28;19935;-56
2022/06/21 03:31:12;;;;;;;;;;;21.80;43.10;;;;;;5073109;28;20265;-55
2022/06/21 03:33:43;;;;;;;;;;;21.80;43.10;;;;;;5057817;28;19970;-57
2022/06/21 03:36:11;;;;;;;;;;;21.80;43.20;;;;;;5054143;28;19925;-54
2022/06/21 03:38:38;;;;;;;;;;;21.80;43.10;;;;;;5067811;28;20018;-55
2022/06/21 03:43:51;;;;;;;;;;;21.80;43.20;;;;;;5071632;28;19928;-55
2022/06/21 03:46:19;;;;;;;;;;;21.80;43.20;;;;;;5070985;28;19925;-56
2022/06/21 03:48:47;;;;;;;;;;;21.80;43.20;;;;;;5069848;28;19932;-55
2022/06/21 03:51:14;;;;;;;;;;;21.80;43.20;;;;;;5070371;28;19928;-56
2022/06/21 03:53:41;;;;;;;;;;;21.80;43.20;;;;;;5072392;28;19925;-54
2022/06/21 03:56:09;;;;;;;;;;;21.80;43.30;;;;;;5063421;28;19935;-54
2022/06/21 03:58:39;;;;;;;;;;;21.80;43.30;;;;;;5052319;28;19994;-56
2022/06/21 04:01:08;;;;;;;;;;;21.80;43.40;;;;;;5064110;28;20476;-56
2022/06/21 04:03:36;;;;;;;;;;;21.80;43.40;;;;;;5067008;28;19964;-56
2022/06/21 04:06:03;;;;;;;;;;;21.80;43.40;;;;;;5072263;28;19970;-53
2022/06/21 04:08:31;;;;;;;;;;;21.80;43.40;;;;;;5069145;28;20015;-53
2022/06/21 04:10:59;;;;;;;;;;;21.80;43.40;;;;;;5071233;28;20297;-55
2022/06/21 04:13:28;;;;;;;;;;;21.70;43.30;;;;;;5070081;28;19924;-56
2022/06/21 04:15:57;;;;;;;;;;;21.70;43.20;;;;;;5060634;28;19964;-57
2022/06/21 04:18:26;;;;;;;;;;;21.70;43.30;;;;;;5071436;28;19928;-55
2022/06/21 04:20:54;;;;;;;;;;;21.80;43.40;;;;;;5071766;28;19924;-55
2022/06/21 04:23:21;;;;;;;;;;;21.70;43.30;;;;;;5088757;28;19967;-56
2022/06/21 04:25:50;;;;;;;;;;;21.70;43.40;;;;;;5073529;28;19976;-56
2022/06/21 04:28:18;;;;;;;;;;;21.70;43.40;;;;;;5060202;28;19924;-54
2022/06/21 04:30:47;;;;;;;;;;;21.70;43.40;;;;;;5070260;28;19968;-55
2022/06/21 04:33:15;;;;;;;;;;;21.70;43.40;;;;;;5069690;28;19928;-56
2022/06/21 04:35:45;;;;;;;;;;;21.70;43.40;;;;;;5072218;28;19978;-55
2022/06/21 04:38:12;;;;;;;;;;;21.70;43.50;;;;;;5069954;28;19924;-55
2022/06/21 04:40:40;;;;;;;;;;;21.70;43.50;;;;;;5070153;28;19967;-57
2022/06/21 04:43:07;;;;;;;;;;;21.70;43.50;;;;;;5082541;28;20011;-56
2022/06/21 04:45:36;;;;;;;;;;;21.70;43.50;;;;;;5078446;28;19925;-55
2022/06/21 04:48:05;;;;;;;;;;;21.70;43.50;;;;;;5077565;28;19928;-55
2022/06/21 04:50:33;;;;;;;;;;;21.70;43.50;;;;;;5072426;28;19932;-56
2022/06/21 04:53:02;;;;;;;;;;;21.70;43.50;;;;;;5075372;28;19929;-55
2022/06/21 04:55:31;;;;;;;;;;;21.70;43.50;;;;;;5071266;28;19933;-56
2022/06/21 04:57:57;;;;;;;;;;;21.70;43.60;;;;;;5078167;28;19925;-56
2022/06/21 05:00:24;;;;;;;;;;;21.70;43.60;;;;;;5062433;28;20442;-54
2022/06/21 05:02:51;;;;;;;;;;;21.70;43.60;;;;;;5077291;28;19986;-53
2022/06/21 05:05:18;;;;;;;;;;;21.70;43.70;;;;;;5054618;28;19953;-55
2022/06/21 05:07:45;;;;;;;;;;;21.70;43.60;;;;;;5063816;28;19928;-56
2022/06/21 05:10:16;;;;;;;;;;;21.70;43.60;;;;;;5065398;28;19928;-57
2022/06/21 05:12:43;;;;;;;;;;;21.70;43.60;;;;;;5069459;28;19970;-53
2022/06/21 05:15:10;;;;;;;;;;;21.70;43.60;;;;;;5051130;28;20027;-52
2022/06/21 05:17:38;;;;;;;;;;;21.70;43.70;;;;;;5059810;28;19925;-55
2022/06/21 05:20:06;;;;;;;;;;;21.70;43.90;;;;;;5054873;28;19940;-56
2022/06/21 05:22:34;;;;;;;;;;;21.70;44.50;;;;;;5066618;28;19931;-56
2022/06/21 05:25:01;;;;;;;;;;;21.70;43.90;;;;;;5071813;28;20281;-56
2022/06/21 05:27:31;;;;;;;;;;;21.70;44.00;;;;;;5085882;28;20035;-55
2022/06/21 05:29:59;;;;;;;;;;;21.70;44.00;;;;;;5070890;28;19979;-54
2022/06/21 05:32:27;;;;;;;;;;;21.70;44.10;;;;;;5086546;28;19925;-52
2022/06/21 05:34:55;;;;;;;;;;;21.60;44.00;;;;;;5077718;28;19963;-56
2022/06/21 05:37:27;;;;;;;;;;;21.60;43.90;;;;;;5064594;28;20350;-55
2022/06/21 05:39:54;;;;;;;;;;;21.70;43.90;;;;;;5066242;28;20403;-57
2022/06/21 05:42:21;;;;;;;;;;;21.60;43.90;;;;;;5069229;28;20380;-56
2022/06/21 05:44:52;;;;;;;;;;;21.70;44.00;;;;;;5065966;28;19960;-56
2022/06/21 05:47:21;;;;;;;;;;;21.60;44.00;;;;;;5069931;28;19925;-57
2022/06/21 05:49:48;;;;;;;;;;;21.60;43.90;;;;;;5055823;28;20321;-55
2022/06/21 05:52:16;;;;;;;;;;;21.60;43.90;;;;;;5051123;28;19929;-57
2022/06/21 05:54:43;;;;;;;;;;;21.60;43.90;;;;;;5050405;28;20307;-56
2022/06/21 05:57:10;;;;;;;;;;;21.60;44.00;;;;;;5066261;28;19935;-54
2022/06/21 05:59:37;;;;;;;;;;;21.60;44.00;;;;;;5066389;28;19924;-56
2022/06/21 06:02:06;;;;;;;;;;;21.70;44.20;;;;;;5055432;28;19932;-53
2022/06/21 06:04:34;;;;;;;;;;;21.60;44.20;;;;;;5054278;28;19925;-52
2022/06/21 06:07:01;;;;;;;;;;;21.60;44.20;;;;;;5062707;28;20400;-52
2022/06/21 06:09:28;;;;;;;;;;;21.70;44.30;;;;;;5068272;28;19971;-56
2022/06/21 06:11:59;;;;;;;;;;;21.70;44.30;;;;;;5065068;28;20296;-57
2022/06/21 06:14:27;;;;;;;;;;;21.60;44.30;;;;;;5059918;28;19936;-55
2022/06/21 06:16:54;;;;;;;;;;;21.70;44.30;;;;;;5061724;28;19928;-54
2022/06/21 06:19:23;;;;;;;;;;;21.70;44.30;;;;;;5057197;28;19963;-54
2022/06/21 06:21:51;;;;;;;;;;;21.70;44.30;;;;;;5076044;28;20404;-57
2022/06/21 06:24:19;;;;;;;;;;;21.60;44.10;;;;;;5063530;28;19928;-52
2022/06/21 06:26:46;;;;;;;;;;;21.70;44.30;;;;;;5059025;28;19924;-51
2022/06/21 06:29:18;;;;;;;;;;;21.70;44.40;;;;;;5056819;28;19924;-55
2022/06/21 06:31:46;;;;;;;;;;;21.70;44.40;;;;;;5061053;28;19932;-55
2022/06/21 06:34:13;;;;;;;;;;;21.70;44.30;;;;;;5062126;28;19928;-55
2022/06/21 06:36:43;;;;;;;;;;;21.70;44.30;;;;;;5063612;28;19924;-54
2022/06/21 06:39:14;;;;;;;;;;;21.70;44.40;;;;;;5064305;28;19924;-52
2022/06/21 06:41:41;;;;;;;;;;;21.70;44.40;;;;;;5083023;28;19925;-57
2022/06/21 06:44:11;;;;;;;;;;;21.70;44.50;;;;;;5063632;28;19925;-55
2022/06/21 06:46:40;;;;;;;;;;;21.70;44.40;;;;;;5067213;28;20408;-55
2022/06/21 06:49:08;;;;;;;;;;;21.70;44.40;;;;;;5057932;28;20134;-52
2022/06/21 06:51:57;;;;;;;;;;;21.70;44.40;;;;;;5067411;28;19928;-56
2022/06/21 06:54:29;;;;;;;;;;;21.70;44.40;;;;;;5070832;28;19929;-53
2022/06/21 06:57:00;;;;;;;;;;;21.70;44.40;;;;;;5056520;28;20029;-55
2022/06/21 06:59:28;;;;;;;;;;;21.70;44.40;;;;;;5055537;28;20430;-52
2022/06/21 07:01:57;;;;;;;;;;;21.70;44.40;;;;;;5065205;28;20277;-57
2022/06/21 07:04:24;;;;;;;;;;;21.70;44.40;;;;;;5061056;28;19935;-58
2022/06/21 07:06:53;;;;;;;;;;;21.70;44.50;;;;;;5061153;28;19925;-55
2022/06/21 07:09:21;;;;;;;;;;;21.70;44.70;;;;;;5069968;28;19932;-55
2022/06/21 07:11:50;;;;;;;;;;;21.70;44.80;;;;;;5078831;28;19928;-55
2022/06/21 07:14:17;;;;;;;;;;;21.70;45.00;;;;;;5064451;28;19940;-57
2022/06/21 07:16:44;;;;;;;;;;;21.70;45.00;;;;;;5067839;28;19925;-58
2022/06/21 07:19:11;;;;;;;;;;;21.70;45.30;;;;;;5057373;28;19925;-58
2022/06/21 07:21:38;;;;;;;;;;;21.70;45.00;;;;;;5064392;28;20043;-57
2022/06/21 07:24:06;;;;;;;;;;;21.70;45.10;;;;;;5077208;28;19972;-58
2022/06/21 07:26:34;;;;;;;;;;;21.70;45.10;;;;;;5069038;28;19924;-56
2022/06/21 07:29:02;;;;;;;;;;;21.70;45.10;;;;;;5062796;28;19924;-58
2022/06/21 07:31:31;;;;;;;;;;;21.70;45.10;;;;;;5064371;28;20103;-55
2022/06/21 07:33:59;;;;;;;;;;;21.70;45.10;;;;;;5065732;28;19935;-57
2022/06/21 07:36:27;;;;;;;;;;;21.70;45.10;;;;;;5068872;28;19924;-57
2022/06/21 07:38:55;;;;;;;;;;;21.70;44.60;;;;;;5058846;28;20196;-57
2022/06/21 07:41:25;;;;;;;;;;;21.70;45.10;;;;;;5054987;28;19925;-56
2022/06/21 07:43:53;;;;;;;;;;;21.80;45.20;;;;;;5057504;28;20516;-57
2022/06/21 07:46:20;;;;;;;;;;;21.80;45.20;;;;;;5052484;28;19932;-55
2022/06/21 07:48:49;;;;;;;;;;;21.80;45.30;;;;;;5057470;28;20342;-56
2022/06/21 07:51:16;;;;;;;;;;;21.80;45.20;;;;;;5065613;28;19928;-56
2022/06/21 07:53:45;;;;;;;;;;;21.80;45.30;;;;;;5079326;28;20310;-56
2022/06/21 07:56:14;;;;;;;;;;;21.80;45.30;;;;;;5059343;28;19973;-56
2022/06/21 07:58:43;;;;;;;;;;;21.80;45.30;;;;;;5060745;28;20013;-58
2022/06/21 08:06:44;;;;;;;;;;;21.80;45.30;;;;;;5062413;28;19932;-58
2022/06/21 08:09:17;;;;;;;;;;;21.80;45.30;;;;;;5062519;28;19946;-55
2022/06/21 08:11:44;;;;;;;;;;;21.80;45.30;;;;;;5064296;28;19977;-55
2022/06/21 08:14:13;;;;;;;;;;;21.80;45.30;;;;;;5065174;28;19933;-57
2022/06/21 08:16:43;;;;;;;;;;;21.80;45.30;;;;;;5076204;28;19935;-57
2022/06/21 08:19:12;;;;;;;;;;;21.80;45.20;;;;;;5059930;28;19937;-57
2022/06/21 08:21:39;;;;;;;;;;;21.80;45.20;;;;;;5065358;28;19924;-56
2022/06/21 08:24:08;;;;;;;;;;;21.80;45.20;;;;;;5058944;28;19928;-58
2022/06/21 08:26:36;;;;;;;;;;;21.80;45.10;;;;;;5061507;28;19932;-58
2022/06/21 08:29:05;;;;;;;;;;;21.80;45.10;;;;;;5059619;28;19994;-57
2022/06/21 08:31:33;;;;;;;;;;;21.80;45.10;;;;;;5060712;28;19962;-56
2022/06/21 08:34:01;;;;;;;;;;;21.80;45.00;;;;;;5064321;28;19950;-57
2022/06/21 08:36:30;;;;;;;;;;;21.80;45.00;;;;;;5059312;28;20388;-57
2022/06/21 08:38:57;;;;;;;;;;;21.80;45.00;;;;;;5061246;28;20329;-56
2022/06/21 08:41:55;;;;;;;;;;;21.80;44.90;;;;;;5059669;28;19925;-58
2022/06/21 08:44:26;;;;;;;;;;;21.80;45.00;;;;;;5062928;28;20031;-59
2022/06/21 08:47:10;;;;;;;;;;;21.90;45.00;;;;;;5056866;28;19933;-58
2022/06/21 08:49:57;;;;;;;;;;;21.90;45.00;;;;;;5072094;28;19939;-57
2022/06/21 08:52:35;;;;;;;;;;;21.90;44.90;;;;;;5056531;28;20458;-58
2022/06/21 08:55:05;;;;;;;;;;;21.90;44.90;;;;;;5056252;28;19967;-58
2022/06/21 08:57:34;;;;;;;;;;;21.90;45.00;;;;;;5057652;28;19929;-58
2022/06/21 09:00:04;;;;;;;;;;;21.90;44.90;;;;;;5058259;28;19944;-57
2022/06/21 09:02:35;;;;;;;;;;;21.90;44.90;;;;;;5059397;28;20023;-56
2022/06/21 09:05:05;;;;;;;;;;;21.90;44.90;;;;;;5066277;28;19939;-58
2022/06/21 09:07:53;;;;;;;;;;;21.90;44.80;;;;;;5071533;28;20403;-56
2022/06/21 09:10:25;;;;;;;;;;;21.90;44.80;;;;;;5055315;28;19924;-56
2022/06/21 09:12:54;;;;;;;;;;;21.90;44.80;;;;;;5064143;28;19931;-57
2022/06/21 09:15:25;;;;;;;;;;;21.90;44.70;;;;;;5056897;28;21316;-56
2022/06/21 09:17:56;;;;;;;;;;;21.90;44.70;;;;;;5057091;28;20341;-58
2022/06/21 09:20:27;;;;;;;;;;;21.90;44.80;;;;;;5068535;28;19978;-56
2022/06/21 09:22:59;;;;;;;;;;;21.90;44.70;;;;;;5059742;28;19929;-57
2022/06/21 09:25:28;;;;;;;;;;;21.90;44.70;;;;;;5064184;28;19938;-55
2022/06/21 09:27:56;;;;;;;;;;;21.90;44.60;;;;;;5057390;28;20009;-57
2022/06/21 09:30:25;;;;;;;;;;;21.90;44.60;;;;;;5059588;28;19924;-55
2022/06/21 09:32:55;;;;;;;;;;;21.90;44.60;;;;;;5056508;28;19932;-57
2022/06/21 09:35:25;;;;;;;;;;;21.90;44.60;;;;;;5063229;28;19925;-55
2022/06/21 09:38:06;;;;;;;;;;;22.00;44.60;;;;;;5060660;28;19925;-53
2022/06/21 09:40:33;;;;;;;;;;;21.90;44.50;;;;;;5074195;28;19983;-57
2022/06/21 09:43:04;;;;;;;;;;;22.00;44.60;;;;;;5055933;28;20032;-57
2022/06/21 09:45:33;;;;;;;;;;;22.00;44.60;;;;;;5078412;28;19935;-56
2022/06/21 09:48:03;;;;;;;;;;;22.00;44.60;;;;;;5074089;28;19968;-55
2022/06/21 09:50:31;;;;;;;;;;;22.00;44.60;;;;;;5066144;28;19928;-52
2022/06/21 09:52:59;;;;;;;;;;;22.00;44.60;;;;;;5063004;28;20365;-56
2022/06/21 09:55:36;;;;;;;;;;;22.00;44.50;;;;;;5081656;28;20328;-54
2022/06/21 09:58:03;;;;;;;;;;;22.00;44.60;;;;;;5063764;28;19974;-57
2022/06/21 10:00:32;;;;;;;;;;;22.00;44.50;;;;;;5075219;28;20309;-53
2022/06/21 10:03:04;;;;;;;;;;;22.00;44.50;;;;;;5067045;28;19985;-54
2022/06/21 10:05:32;;;;;;;;;;;22.00;44.50;;;;;;5062834;28;19998;-57
2022/06/21 10:08:07;;;;;;;;;;;22.00;44.50;;;;;;5061173;28;20027;-56
2022/06/21 10:10:41;;;;;;;;;;;22.00;44.50;;;;;;5057304;28;19967;-58
2022/06/21 10:13:11;;;;;;;;;;;22.00;44.40;;;;;;5065124;28;19975;-55
2022/06/21 10:15:39;;;;;;;;;;;22.00;44.40;;;;;;5061695;28;19990;-58
2022/06/21 10:18:18;;;;;;;;;;;22.00;44.40;;;;;;5061767;28;19928;-56
2022/06/21 10:20:49;;;;;;;;;;;22.00;44.40;;;;;;5059563;28;19932;-56
2022/06/21 10:23:22;;;;;;;;;;;22.00;44.40;;;;;;5060968;28;19999;-57
2022/06/21 10:25:52;;;;;;;;;;;22.00;44.30;;;;;;5069088;28;19928;-57
2022/06/21 10:28:34;;;;;;;;;;;22.00;44.30;;;;;;5063372;28;19986;-55
2022/06/21 10:31:04;;;;;;;;;;;22.00;44.20;;;;;;5056628;28;19928;-57
2022/06/21 10:33:49;;;;;;;;;;;22.00;44.20;;;;;;5071679;28;19936;-56
2022/06/21 10:36:26;;;;;;;;;;;22.00;44.20;;;;;;5057439;28;19928;-56
2022/06/21 10:38:57;;;;;;;;;;;22.00;44.10;;;;;;5055740;28;20348;-55
2022/06/21 10:41:26;;;;;;;;;;;22.00;44.10;;;;;;5069873;28;19978;-56
2022/06/21 10:44:00;;;;;;;;;;;22.00;44.10;;;;;;5055537;28;19968;-55
2022/06/21 10:46:28;;;;;;;;;;;22.00;44.10;;;;;;5071788;28;19932;-58
2022/06/21 10:49:19;;;;;;;;;;;22.00;44.00;;;;;;5057527;28;19991;-57
2022/06/21 10:51:56;;;;;;;;;;;22.00;44.10;;;;;;5058455;28;19931;-52
2022/06/21 10:54:27;;;;;;;;;;;22.00;44.00;;;;;;5068061;28;19971;-56
2022/06/21 10:57:11;;;;;;;;;;;22.00;44.00;;;;;;5054486;28;19960;-56
2022/06/21 11:02:28;;;;;;;;;;;22.10;44.00;;;;;;5058013;28;19942;-57
2022/06/21 11:04:55;;;;;;;;;;;22.10;44.00;;;;;;5062999;28;19924;-55
2022/06/21 11:07:25;;;;;;;;;;;22.10;44.00;;;;;;5059423;28;19932;-54
2022/06/21 11:09:53;;;;;;;;;;;22.00;43.90;;;;;;5061525;28;19925;-57
2022/06/21 11:15:08;;;;;;;;;;;22.10;44.00;;;;;;5053827;28;19925;-57
2022/06/21 11:17:37;;;;;;;;;;;22.10;44.00;;;;;;5056347;28;20447;-55
2022/06/21 11:20:06;;;;;;;;;;;22.10;44.00;;;;;;5058828;28;19924;-50
2022/06/21 11:22:37;;;;;;;;;;;22.10;44.00;;;;;;5062117;28;20057;-54
2022/06/21 11:25:11;;;;;;;;;;;22.10;44.00;;;;;;5068616;28;19932;-56
2022/06/21 11:27:40;;;;;;;;;;;22.10;44.10;;;;;;5058024;28;19961;-55
2022/06/21 11:30:09;;;;;;;;;;;22.10;44.00;;;;;;5069573;28;20365;-57
2022/06/21 11:32:37;;;;;;;;;;;22.10;44.00;;;;;;5076552;28;19994;-58
2022/06/21 11:35:07;;;;;;;;;;;22.10;44.00;;;;;;5060478;28;19948;-59
2022/06/21 11:37:39;;;;;;;;;;;22.20;58.40;;;;;;5053330;28;19939;-57
2022/06/21 11:40:08;;;;;;;;;;;;;;;;;;5074448;28;19964;-59
2022/06/21 11:42:36;;;;;;;;;;;22.20;82.00;;;;;;5053686;28;19929;-56
2022/06/21 11:45:06;;;;;;;;;;;22.20;44.10;;;;;;5048538;28;19925;-58
2022/06/21 11:47:39;;;;;;;;;;;22.20;44.10;;;;;;5063362;28;19968;-58
2022/06/21 11:50:07;;;;;;;;;;;22.20;44.30;;;;;;5051574;28;19928;-57
2022/06/21 11:52:55;;;;;;;;;;;22.20;44.10;;;;;;5062235;28;19935;-58
2022/06/21 11:55:25;;;;;;;;;;;22.20;44.00;;;;;;5069516;28;19939;-57
2022/06/21 11:57:54;;;;;;;;;;;22.20;44.00;;;;;;5053780;28;19925;-56
2022/06/21 12:00:22;;;;;;;;;;;22.20;44.00;;;;;;5063912;28;19964;-53
2022/06/21 12:02:50;;;;;;;;;;;22.20;44.00;;;;;;5071393;28;19963;-57
2022/06/21 12:05:20;;;;;;;;;;;22.20;44.00;;;;;;5066956;28;19932;-58
2022/06/21 12:07:47;;;;;;;;;;;22.20;44.50;;;;;;5064741;28;19940;-57
2022/06/21 12:10:15;;;;;;;;;;;22.20;44.00;;;;;;5065526;28;20509;-57
2022/06/21 12:12:47;;;;;;;;;;;22.20;44.00;;;;;;5062985;28;19960;-57
2022/06/21 12:15:18;;;;;;;;;;;22.20;44.00;;;;;;5056422;28;19932;-55
2022/06/21 12:17:46;;;;;;;;;;;22.20;44.00;;;;;;5065999;28;19932;-57
2022/06/21 12:20:15;;;;;;;;;;;22.20;43.90;;;;;;5059298;28;19944;-57
2022/06/21 12:22:43;;;;;;;;;;;22.20;43.90;;;;;;5079789;28;19932;-57
2022/06/21 12:25:11;;;;;;;;;;;22.20;43.90;;;;;;5064256;28;19932;-57
2022/06/21 12:27:38;;;;;;;;;;;22.20;44.90;;;;;;5048314;28;19928;-57
2022/06/21 12:30:15;;;;;;;;;;;22.20;48.10;;;;;;5061234;28;20404;-57
2022/06/21 12:32:41;;;;;;;;;;;22.30;48.10;;;;;;5056077;28;20399;-58
2022/06/21 12:35:11;;;;;;;;;;;22.20;49.10;;;;;;5063354;28;19924;-57
2022/06/21 12:37:39;;;;;;;;;;;22.20;49.50;;;;;;5065489;28;20030;-57
2022/06/21 12:40:08;;;;;;;;;;;22.30;49.70;;;;;;5061661;28;20315;-55
2022/06/21 12:42:41;;;;;;;;;;;22.30;50.00;;;;;;5080480;28;19924;-57
2022/06/21 12:45:23;;;;;;;;;;;22.30;50.60;;;;;;5059825;28;19928;-57
2022/06/21 12:47:55;;;;;;;;;;;22.30;46.90;;;;;;5061434;28;19932;-57
2022/06/21 12:50:29;;;;;;;;;;;22.30;45.00;;;;;;5060266;28;19940;-57
2022/06/21 12:52:58;;;;;;;;;;;22.30;43.90;;;;;;5080727;28;19924;-56
2022/06/21 12:55:26;;;;;;;;;;;22.30;43.70;;;;;;5061241;28;20042;-57
2022/06/21 12:58:02;;;;;;;;;;;22.30;43.70;;;;;;5064438;28;20009;-57
2022/06/21 13:00:37;;;;;;;;;;;22.30;43.70;;;;;;5072890;28;19978;-57
2022/06/21 13:03:08;;;;;;;;;;;22.30;43.60;;;;;;5059932;28;19959;-58
2022/06/21 13:05:39;;;;;;;;;;;22.30;43.60;;;;;;5074147;28;19929;-57
2022/06/21 13:08:12;;;;;;;;;;;22.30;43.60;;;;;;5056933;28;19940;-58
2022/06/21 13:10:40;;;;;;;;;;;22.30;43.60;;;;;;5053752;28;20095;-55
2022/06/21 13:13:16;;;;;;;;;;;22.30;43.60;;;;;;5063235;28;20148;-57
2022/06/21 13:15:56;;;;;;;;;;;22.30;43.60;;;;;;5077994;28;20337;-55
2022/06/21 13:18:36;;;;;;;;;;;22.30;43.60;;;;;;5059162;28;20385;-57
2022/06/21 13:21:07;;;;;;;;;;;22.30;43.50;;;;;;5066856;28;19924;-55
2022/06/21 13:23:36;;;;;;;;;;;22.30;43.50;;;;;;5061357;28;19929;-57
2022/06/21 13:26:04;;;;;;;;;;;22.30;43.50;;;;;;5075762;28;19924;-55
2022/06/21 13:28:38;;;;;;;;;;;22.30;43.60;;;;;;5061135;28;19931;-58
2022/06/21 13:31:07;;;;;;;;;;;22.30;43.50;;;;;;5079094;28;19924;-55
2022/06/21 13:33:48;;;;;;;;;;;22.40;43.60;;;;;;5076978;28;19933;-57
2022/06/21 13:36:17;;;;;;;;;;;22.30;43.50;;;;;;5060243;28;19952;-58
2022/06/21 13:38:45;;;;;;;;;;;22.30;43.50;;;;;;5074528;28;19925;-55
2022/06/21 13:42:37;;;;;;;;;;;22.40;43.60;;;;;;5065606;28;19932;-55
2022/06/21 13:44:03;;;;;;;;;;;22.40;43.80;;;;;;5066113;28;19968;-56
2022/06/21 13:46:33;;;;;;;;;;;22.30;43.50;;;;;;5070500;28;19932;-58
2022/06/21 13:49:01;;;;;;;;;;;22.40;43.50;;;;;;5063776;28;19978;-56
2022/06/21 13:51:33;;;;;;;;;;;22.40;43.50;;;;;;5059634;28;19943;-58
2022/06/21 13:54:03;;;;;;;;;;;22.40;43.50;;;;;;5076785;28;19928;-57
2022/06/21 13:56:30;;;;;;;;;;;22.40;43.40;;;;;;5059961;28;20293;-57
2022/06/21 13:58:58;;;;;;;;;;;22.40;43.50;;;;;;5065147;28;19929;-57
2022/06/21 14:01:25;;;;;;;;;;;22.40;43.40;;;;;;5062579;28;19946;-56
2022/06/21 14:04:01;;;;;;;;;;;22.40;43.50;;;;;;5068136;28;19924;-57
2022/06/21 14:06:32;;;;;;;;;;;22.40;43.40;;;;;;5062152;28;20347;-57
2022/06/21 14:09:01;;;;;;;;;;;22.40;43.40;;;;;;5059281;28;19936;-56
2022/06/21 14:11:29;;;;;;;;;;;22.40;43.40;;;;;;5063111;28;19971;-57
2022/06/21 14:13:59;;;;;;;;;;;22.40;43.40;;;;;;5070592;28;19970;-58
2022/06/21 14:16:27;;;;;;;;;;;22.40;43.90;;;;;;5070924;28;19960;-57
2022/06/21 14:18:56;;;;;;;;;;;22.40;43.30;;;;;;5071866;28;20019;-58
2022/06/21 14:21:27;;;;;;;;;;;22.40;43.40;;;;;;5068987;28;19924;-55
2022/06/21 14:23:55;;;;;;;;;;;22.40;43.40;;;;;;5070600;28;20335;-56
2022/06/21 14:26:23;;;;;;;;;;;22.50;43.50;;;;;;5065856;28;19933;-57
2022/06/21 14:28:50;;;;;;;;;;;22.50;43.50;;;;;;5059313;28;20345;-55
2022/06/21 14:31:19;;;;;;;;;;;22.50;43.40;;;;;;5071712;28;19982;-58
2022/06/21 14:33:47;;;;;;;;;;;22.50;43.40;;;;;;5068364;28;20020;-57
2022/06/21 14:36:16;;;;;;;;;;;22.40;43.30;;;;;;5063506;28;19935;-55
2022/06/21 14:38:46;;;;;;;;;;;22.50;43.40;;;;;;5070153;28;19970;-58
2022/06/21 14:41:15;;;;;;;;;;;22.40;43.30;;;;;;5059810;28;19928;-55
2022/06/21 14:43:43;;;;;;;;;;;22.50;43.40;;;;;;5060069;28;20125;-57
2022/06/21 14:46:12;;;;;;;;;;;22.40;43.20;;;;;;5065000;28;19931;-55
2022/06/21 14:48:43;;;;;;;;;;;22.50;43.40;;;;;;5067627;28;19925;-57